Choshi, Japan

12:10 PM JST on April 21, 2015 (GMT +0900)
MARITIME | | Change Station
CLOSE
Current Station
Personal Weather Station
Location: Sand Point, AK
Elevation: 0 ft
Nearby Weather Stations

Elev 0 ft 54.00 °N, 161.20 °W | Updated 21 days ago

Cloudy
Cloudy
57 °F
Feels Like 57 °F
N
14
Wind Variable Wind from ENE
Gusts 18 mph

Today
High -- | Low -- °F
--% Chance of Precip.
Yesterday
High -- | Low -- °F
Precip. -- in
4:56 AM 6:13 PM
Waxing Crescent, 7% visible
Pressure 29.71 in
Visibility 6.2 miles
Clouds Few 1000 ft
Mostly Cloudy 1800 ft
Dew Point 49 °F
Humidity 74%
Rainfall in
Snow Depth Not available.
UV 5 out of 12
Pollen Not available.
Air Quality Not available.
Flu Activity Not available.
METAR RJAA 210300Z 04009KT 360V080 9999 FEW010 BKN018 16/11 Q1006 NOSIG RMK 1ST010 7SC018 A2973

More Conditions Fewer Conditions

Pressure 29.71 in
Visibility 6.2 miles
Clouds Few 1000 ft
Mostly Cloudy 1800 ft
Dew Point 49 °F
Humidity 74%
Rainfall in
Snow Depth Not available.
UV 5 out of 12
Pollen Not available.
Air Quality Not available.
Flu Activity Not available.
METAR RJAA 210300Z 04009KT 360V080 9999 FEW010 BKN018 16/11 Q1006 NOSIG RMK 1ST010 7SC018 A2973

More Conditions Fewer Conditions

10-Day Weather Forecast

Almanac

Astronomy

Apr. 21, 2015 Rise Set
Actual Time
Civil Twilight
Nautical Twilight
Astronomical Twilight
Moon
Length of Visible Light
Length of Day
Tomorrow will be .
, % of the Moon is Illuminated

Today's Extremes

Country Highs Country Lows

Community

WunderPhotos

Upload Photos

1,815,289 photos uploaded!

WunderBlogs® & News

Nearby

Air Quality

  Air Quality AQ Index Pollutant
Not available.

Snow Depth

Station Depth Elevation

Earthquake Activity

City Distance Mag. Time & Date
Minimum magnitude displayed is 2.5.

Coastal Water Temperatures

Place Temperature

Stations

Nearby Weather Stations

Station Location Temp. Windchill Dew Point Humidity Wind Precip. Elev Updated Type